sensor_id;sensor_type;location;lat;lon;timestamp;pressure;altitude;pressure_sealevel;temperature;humidity
44127;BME280;29786;50.798;7.302;2023-03-23T00:04:27;98200;;;12.19;100
44127;BME280;29786;50.798;7.302;2023-03-23T00:09:24;98190;;;12.19;100
44127;BME280;29786;50.798;7.302;2023-03-23T00:15:35;98200;;;12.23;100
44127;BME280;29786;50.798;7.302;2023-03-23T00:20:31;98200;;;12.13;100
44127;BME280;29786;50.798;7.302;2023-03-23T00:25:28;98210;;;12.24;100
44127;BME280;29786;50.798;7.302;2023-03-23T00:30:24;98190;;;12.19;100
44127;BME280;29786;50.798;7.302;2023-03-23T00:36:35;98210;;;12.22;100
44127;BME280;29786;50.798;7.302;2023-03-23T00:41:31;98190;;;12.06;100
44127;BME280;29786;50.798;7.302;2023-03-23T00:46:28;98190;;;12.15;100
44127;BME280;29786;50.798;7.302;2023-03-23T00:51:24;98200;;;12.13;100
44127;BME280;29786;50.798;7.302;2023-03-23T00:57:35;98210;;;12.1;100
44127;BME280;29786;50.798;7.302;2023-03-23T01:02:32;98190;;;12;100
44127;BME280;29786;50.798;7.302;2023-03-23T01:07:28;98200;;;11.98;100
44127;BME280;29786;50.798;7.302;2023-03-23T01:12:25;98200;;;11.89;100
44127;BME280;29786;50.798;7.302;2023-03-23T01:18:36;98180;;;11.85;100
44127;BME280;29786;50.798;7.302;2023-03-23T01:23:33;98170;;;11.65;100
44127;BME280;29786;50.798;7.302;2023-03-23T01:28:28;98150;;;11.72;100
44127;BME280;29786;50.798;7.302;2023-03-23T01:33:25;98170;;;11.52;100
44127;BME280;29786;50.798;7.302;2023-03-23T01:39:36;98150;;;11.3;100
44127;BME280;29786;50.798;7.302;2023-03-23T01:49:29;98150;;;11.03;100
44127;BME280;29786;50.798;7.302;2023-03-23T01:54:25;98150;;;10.82;100
44127;BME280;29786;50.798;7.302;2023-03-23T02:00:37;98150;;;10.64;100
44127;BME280;29786;50.798;7.302;2023-03-23T02:05:34;98150;;;10.6;100
44127;BME280;29786;50.798;7.302;2023-03-23T02:10:30;98170;;;10.62;100
44127;BME280;29786;50.798;7.302;2023-03-23T02:15:27;98160;;;10.52;100
44127;BME280;29786;50.798;7.302;2023-03-23T02:21:43;98150;;;10.52;100
44127;BME280;29786;50.798;7.302;2023-03-23T02:26:50;98160;;;10.54;100
44127;BME280;29786;50.798;7.302;2023-03-23T02:31:42;98160;;;10.71;100
44127;BME280;29786;50.798;7.302;2023-03-23T02:36:35;98150;;;10.84;100
44127;BME280;29786;50.798;7.302;2023-03-23T02:42:38;98140;;;10.82;100
44127;BME280;29786;50.798;7.302;2023-03-23T02:47:33;98130;;;10.94;100
44127;BME280;29786;50.798;7.302;2023-03-23T02:52:30;98120;;;10.9;100
44127;BME280;29786;50.798;7.302;2023-03-23T02:57:26;98110;;;10.87;100
44127;BME280;29786;50.798;7.302;2023-03-23T03:03:37;98110;;;10.72;100
44127;BME280;29786;50.798;7.302;2023-03-23T03:08:36;98110;;;10.59;100
44127;BME280;29786;50.798;7.302;2023-03-23T03:13:32;98120;;;10.66;100
44127;BME280;29786;50.798;7.302;2023-03-23T03:18:28;98100;;;10.56;100
44127;BME280;29786;50.798;7.302;2023-03-23T03:24:37;98090;;;10.6;100
44127;BME280;29786;50.798;7.302;2023-03-23T03:29:34;98070;;;10.74;100
44127;BME280;29786;50.798;7.302;2023-03-23T03:34:30;98080;;;10.83;100
44127;BME280;29786;50.798;7.302;2023-03-23T03:39:27;98090;;;10.86;100
44127;BME280;29786;50.798;7.302;2023-03-23T03:45:37;98080;;;10.86;100
44127;BME280;29786;50.798;7.302;2023-03-23T03:50:34;98110;;;10.88;100
44127;BME280;29786;50.798;7.302;2023-03-23T03:55:30;98140;;;10.98;100
44127;BME280;29786;50.798;7.302;2023-03-23T04:00:27;98140;;;11;100
44127;BME280;29786;50.798;7.302;2023-03-23T04:05:23;98150;;;10.96;100
44127;BME280;29786;50.798;7.302;2023-03-23T04:11:34;98130;;;10.99;100
44127;BME280;29786;50.798;7.302;2023-03-23T04:16:31;98120;;;11.02;100
44127;BME280;29786;50.798;7.302;2023-03-23T04:21:27;98120;;;11.05;100
44127;BME280;29786;50.798;7.302;2023-03-23T04:27:38;98130;;;11.11;100
44127;BME280;29786;50.798;7.302;2023-03-23T04:32:34;98120;;;10.95;100
44127;BME280;29786;50.798;7.302;2023-03-23T04:42:36;98120;;;10.98;100
44127;BME280;29786;50.798;7.302;2023-03-23T04:47:34;98130;;;10.97;100
44127;BME280;29786;50.798;7.302;2023-03-23T04:52:29;98130;;;10.93;100
44127;BME280;29786;50.798;7.302;2023-03-23T04:57:25;98130;;;10.92;100
44127;BME280;29786;50.798;7.302;2023-03-23T05:03:36;98130;;;10.89;100
44127;BME280;29786;50.798;7.302;2023-03-23T05:08:32;98120;;;10.85;100
44127;BME280;29786;50.798;7.302;2023-03-23T05:13:29;98130;;;10.83;100
44127;BME280;29786;50.798;7.302;2023-03-23T05:18:25;98130;;;10.79;100
44127;BME280;29786;50.798;7.302;2023-03-23T05:24:36;98130;;;10.78;100
44127;BME280;29786;50.798;7.302;2023-03-23T05:29:33;98130;;;10.76;100
44127;BME280;29786;50.798;7.302;2023-03-23T05:34:29;98130;;;10.73;100
44127;BME280;29786;50.798;7.302;2023-03-23T05:39:26;98120;;;10.81;100
44127;BME280;29786;50.798;7.302;2023-03-23T05:45:36;98130;;;10.94;100
44127;BME280;29786;50.798;7.302;2023-03-23T05:50:33;98130;;;10.96;100
44127;BME280;29786;50.798;7.302;2023-03-23T05:55:29;98150;;;11.05;100
44127;BME280;29786;50.798;7.302;2023-03-23T06:00:26;98140;;;11.09;100
44127;BME280;29786;50.798;7.302;2023-03-23T06:06:37;98140;;;11.15;100
44127;BME280;29786;50.798;7.302;2023-03-23T06:11:33;98170;;;11.22;100
44127;BME280;29786;50.798;7.302;2023-03-23T06:16:30;98170;;;11.27;100
44127;BME280;29786;50.798;7.302;2023-03-23T06:21:26;98160;;;11.26;100
44127;BME280;29786;50.798;7.302;2023-03-23T06:27:37;98150;;;11.36;100
44127;BME280;29786;50.798;7.302;2023-03-23T06:32:33;98150;;;11.41;100
44127;BME280;29786;50.798;7.302;2023-03-23T06:37:30;98170;;;11.53;100
44127;BME280;29786;50.798;7.302;2023-03-23T06:42:27;98170;;;11.59;100
44127;BME280;29786;50.798;7.302;2023-03-23T06:48:37;98170;;;11.71;100
44127;BME280;29786;50.798;7.302;2023-03-23T06:53:34;98170;;;11.81;100
44127;BME280;29786;50.798;7.302;2023-03-23T06:58:30;98190;;;11.76;100
44127;BME280;29786;50.798;7.302;2023-03-23T07:03:27;98200;;;11.77;100
44127;BME280;29786;50.798;7.302;2023-03-23T07:09:37;98190;;;11.78;100
44127;BME280;29786;50.798;7.302;2023-03-23T07:14:34;98210;;;11.81;100
44127;BME280;29786;50.798;7.302;2023-03-23T07:19:30;98200;;;11.88;100
44127;BME280;29786;50.798;7.302;2023-03-23T07:24:27;98200;;;11.98;100
44127;BME280;29786;50.798;7.302;2023-03-23T07:30:38;98200;;;11.99;100
44127;BME280;29786;50.798;7.302;2023-03-23T07:35:34;98210;;;12.07;100
44127;BME280;29786;50.798;7.302;2023-03-23T07:40:31;98190;;;11.99;100
44127;BME280;29786;50.798;7.302;2023-03-23T07:45:27;98200;;;12.25;100
44127;BME280;29786;50.798;7.302;2023-03-23T07:50:24;98200;;;12.16;100
44127;BME280;29786;50.798;7.302;2023-03-23T07:56:35;98200;;;12.33;100
44127;BME280;29786;50.798;7.302;2023-03-23T08:01:31;98180;;;12.3;100
44127;BME280;29786;50.798;7.302;2023-03-23T08:06:28;98210;;;12.56;100
44127;BME280;29786;50.798;7.302;2023-03-23T08:12:39;98190;;;12.66;100
44127;BME280;29786;50.798;7.302;2023-03-23T08:17:35;98210;;;12.62;99.49
44127;BME280;29786;50.798;7.302;2023-03-23T08:22:31;98180;;;12.72;97.66
44127;BME280;29786;50.798;7.302;2023-03-23T08:27:28;98190;;;12.65;97.47
44127;BME280;29786;50.798;7.302;2023-03-23T08:32:25;98200;;;12.69;98.46
44127;BME280;29786;50.798;7.302;2023-03-23T08:38:35;98210;;;12.64;95.29
44127;BME280;29786;50.798;7.302;2023-03-23T08:43:32;98220;;;12.76;94.66
44127;BME280;29786;50.798;7.302;2023-03-23T08:48:28;98190;;;12.9;94.07
44127;BME280;29786;50.798;7.302;2023-03-23T08:53:25;98210;;;12.8;89.55
44127;BME280;29786;50.798;7.302;2023-03-23T08:59:35;98210;;;12.96;91.96
44127;BME280;29786;50.798;7.302;2023-03-23T09:04:32;98220;;;13.16;90.59
44127;BME280;29786;50.798;7.302;2023-03-23T09:09:28;98220;;;13.21;88.54
44127;BME280;29786;50.798;7.302;2023-03-23T09:20:35;98230;;;13.33;88.52
44127;BME280;29786;50.798;7.302;2023-03-23T09:25:32;98240;;;13.2;88.26
44127;BME280;29786;50.798;7.302;2023-03-23T09:30:30;98240;;;13.11;90.32
44127;BME280;29786;50.798;7.302;2023-03-23T09:35:25;98250;;;13;90.55
44127;BME280;29786;50.798;7.302;2023-03-23T09:41:44;98240;;;13.09;88.79
44127;BME280;29786;50.798;7.302;2023-03-23T09:46:36;98260;;;12.97;88.69
44127;BME280;29786;50.798;7.302;2023-03-23T09:51:37;98250;;;13.18;87.21
44127;BME280;29786;50.798;7.302;2023-03-23T09:56:29;98260;;;12.92;86.55
44127;BME280;29786;50.798;7.302;2023-03-23T10:02:38;98270;;;13;87.62
44127;BME280;29786;50.798;7.302;2023-03-23T10:07:33;98270;;;12.94;89.42
44127;BME280;29786;50.798;7.302;2023-03-23T10:12:33;98280;;;12.79;91.72
44127;BME280;29786;50.798;7.302;2023-03-23T10:17:27;98270;;;13.01;91.79
44127;BME280;29786;50.798;7.302;2023-03-23T10:24:09;98250;;;13.54;87.49
44127;BME280;29786;50.798;7.302;2023-03-23T10:28:35;98260;;;13.8;85.78
44127;BME280;29786;50.798;7.302;2023-03-23T10:33:34;98270;;;13.54;87.25
44127;BME280;29786;50.798;7.302;2023-03-23T10:44:37;98270;;;13.05;93.67
44127;BME280;29786;50.798;7.302;2023-03-23T10:49:38;98270;;;12.9;96.12
44127;BME280;29786;50.798;7.302;2023-03-23T10:54:32;98280;;;12.95;97.31
44127;BME280;29786;50.798;7.302;2023-03-23T10:59:28;98290;;;13.01;99.12
44127;BME280;29786;50.798;7.302;2023-03-23T11:05:40;98280;;;13.25;98.18
44127;BME280;29786;50.798;7.302;2023-03-23T11:10:38;98290;;;13.26;97.39
44127;BME280;29786;50.798;7.302;2023-03-23T11:15:31;98290;;;13.1;100
44127;BME280;29786;50.798;7.302;2023-03-23T11:20:27;98290;;;13.08;100
44127;BME280;29786;50.798;7.302;2023-03-23T11:26:37;98280;;;13.02;100
44127;BME280;29786;50.798;7.302;2023-03-23T11:31:34;98270;;;13.25;100
44127;BME280;29786;50.798;7.302;2023-03-23T11:36:32;98270;;;13.64;99.69
44127;BME280;29786;50.798;7.302;2023-03-23T11:41:31;98260;;;13.76;96.42
44127;BME280;29786;50.798;7.302;2023-03-23T11:47:41;98250;;;14.18;93.03
44127;BME280;29786;50.798;7.302;2023-03-23T11:52:39;98250;;;14.65;88.47
44127;BME280;29786;50.798;7.302;2023-03-23T11:57:30;98240;;;14.41;89.2
44127;BME280;29786;50.798;7.302;2023-03-23T12:02:34;98250;;;14.46;85.13
44127;BME280;29786;50.798;7.302;2023-03-23T12:09:14;98260;;;14.54;85.36
44127;BME280;29786;50.798;7.302;2023-03-23T12:14:44;98260;;;14.75;85.57
44127;BME280;29786;50.798;7.302;2023-03-23T12:18:40;98260;;;14.15;84.39
44127;BME280;29786;50.798;7.302;2023-03-23T12:23:33;98280;;;14.71;79.57
44127;BME280;29786;50.798;7.302;2023-03-23T12:29:42;98260;;;14.58;79.44
44127;BME280;29786;50.798;7.302;2023-03-23T12:34:52;98260;;;14.4;79.77
44127;BME280;29786;50.798;7.302;2023-03-23T12:39:44;98250;;;14.75;77.92
44127;BME280;29786;50.798;7.302;2023-03-23T12:44:31;98280;;;14.54;79.49
44127;BME280;29786;50.798;7.302;2023-03-23T12:50:40;98250;;;14.65;79.78
44127;BME280;29786;50.798;7.302;2023-03-23T12:55:38;98250;;;14.59;79.35
44127;BME280;29786;50.798;7.302;2023-03-23T13:00:46;98220;;;14.12;80.27
44127;BME280;29786;50.798;7.302;2023-03-23T13:05:38;98250;;;14.08;80.19
44127;BME280;29786;50.798;7.302;2023-03-23T13:11:39;98250;;;14.09;80.47
44127;BME280;29786;50.798;7.302;2023-03-23T13:16:42;98260;;;14.04;80.08
44127;BME280;29786;50.798;7.302;2023-03-23T13:21:32;98280;;;14.01;81.51
44127;BME280;29786;50.798;7.302;2023-03-23T13:26:28;98280;;;13.95;82.09
44127;BME280;29786;50.798;7.302;2023-03-23T13:31:29;98260;;;14.08;80.09
44127;BME280;29786;50.798;7.302;2023-03-23T13:37:35;98230;;;14.23;78.98
44127;BME280;29786;50.798;7.302;2023-03-23T13:42:32;98240;;;14.32;79.42
44127;BME280;29786;50.798;7.302;2023-03-23T13:47:34;98250;;;14.34;77.95
44127;BME280;29786;50.798;7.302;2023-03-23T13:58:43;98250;;;14.34;79.2
44127;BME280;29786;50.798;7.302;2023-03-23T14:03:36;98250;;;14.23;78.62
44127;BME280;29786;50.798;7.302;2023-03-23T14:08:37;98240;;;14.22;79.43
44127;BME280;29786;50.798;7.302;2023-03-23T14:13:33;98250;;;14.32;80.68
44127;BME280;29786;50.798;7.302;2023-03-23T14:19:37;98260;;;14.23;79.56
44127;BME280;29786;50.798;7.302;2023-03-23T14:24:33;98260;;;14.37;79.37
44127;BME280;29786;50.798;7.302;2023-03-23T14:29:29;98250;;;14.25;78.01
44127;BME280;29786;50.798;7.302;2023-03-23T14:34:26;98240;;;14.36;79.25
44127;BME280;29786;50.798;7.302;2023-03-23T14:40:36;98240;;;14.07;81.84
44127;BME280;29786;50.798;7.302;2023-03-23T14:45:33;98250;;;13.97;81.76
44127;BME280;29786;50.798;7.302;2023-03-23T14:50:31;98240;;;13.93;82.8
44127;BME280;29786;50.798;7.302;2023-03-23T14:55:26;98240;;;14.01;82.88
44127;BME280;29786;50.798;7.302;2023-03-23T15:01:37;98240;;;13.99;83.4
44127;BME280;29786;50.798;7.302;2023-03-23T15:06:33;98250;;;14.02;83.98
44127;BME280;29786;50.798;7.302;2023-03-23T15:11:30;98260;;;14.01;84.53
44127;BME280;29786;50.798;7.302;2023-03-23T15:22:44;98230;;;14.48;81
44127;BME280;29786;50.798;7.302;2023-03-23T15:27:34;98220;;;14.67;77.37
44127;BME280;29786;50.798;7.302;2023-03-23T15:32:31;98210;;;14.63;79.57
44127;BME280;29786;50.798;7.302;2023-03-23T15:37:27;98200;;;14.61;79.12
44127;BME280;29786;50.798;7.302;2023-03-23T15:43:48;98190;;;14.88;76.77
44127;BME280;29786;50.798;7.302;2023-03-23T15:48:45;98190;;;14.7;76.1
44127;BME280;29786;50.798;7.302;2023-03-23T15:53:32;98190;;;14.8;75.73
44127;BME280;29786;50.798;7.302;2023-03-23T15:58:27;98180;;;15.23;72.93
44127;BME280;29786;50.798;7.302;2023-03-23T16:04:37;98200;;;15.13;70.74
44127;BME280;29786;50.798;7.302;2023-03-23T16:09:34;98210;;;15.36;69.21
44127;BME280;29786;50.798;7.302;2023-03-23T16:14:30;98210;;;15.79;67.23
44127;BME280;29786;50.798;7.302;2023-03-23T16:19:27;98190;;;15.35;66.26
44127;BME280;29786;50.798;7.302;2023-03-23T16:25:37;98180;;;15.32;65.51
44127;BME280;29786;50.798;7.302;2023-03-23T16:30:34;98180;;;17.14;58.37
44127;BME280;29786;50.798;7.302;2023-03-23T16:35:30;98180;;;16.24;60.85
44127;BME280;29786;50.798;7.302;2023-03-23T16:40:27;98190;;;15.5;63.69
44127;BME280;29786;50.798;7.302;2023-03-23T16:46:38;98190;;;14.95;67.54
44127;BME280;29786;50.798;7.302;2023-03-23T16:51:34;98190;;;14.96;68.23
44127;BME280;29786;50.798;7.302;2023-03-23T16:56:31;98160;;;15.38;64.44
44127;BME280;29786;50.798;7.302;2023-03-23T17:01:27;98180;;;14.98;66.64
44127;BME280;29786;50.798;7.302;2023-03-23T17:07:38;98190;;;14.68;68.5
44127;BME280;29786;50.798;7.302;2023-03-23T17:12:35;98200;;;14.43;70.37
44127;BME280;29786;50.798;7.302;2023-03-23T17:17:31;98190;;;13.79;71.73
44127;BME280;29786;50.798;7.302;2023-03-23T17:22:27;98210;;;13.77;72.73
44127;BME280;29786;50.798;7.302;2023-03-23T17:28:38;98220;;;13.5;74.74
44127;BME280;29786;50.798;7.302;2023-03-23T17:33:35;98230;;;13.38;74.75
44127;BME280;29786;50.798;7.302;2023-03-23T17:38:31;98200;;;13.2;75.69
44127;BME280;29786;50.798;7.302;2023-03-23T17:43:28;98230;;;13.19;77.14
44127;BME280;29786;50.798;7.302;2023-03-23T17:48:24;98220;;;13.08;78.43
44127;BME280;29786;50.798;7.302;2023-03-23T17:54:35;98220;;;13.1;78.62
44127;BME280;29786;50.798;7.302;2023-03-23T17:59:32;98230;;;13.1;79.34
44127;BME280;29786;50.798;7.302;2023-03-23T18:04:28;98220;;;13.15;79.64
44127;BME280;29786;50.798;7.302;2023-03-23T18:09:24;98220;;;13.17;80.39
44127;BME280;29786;50.798;7.302;2023-03-23T18:15:35;98230;;;13.11;81.2
44127;BME280;29786;50.798;7.302;2023-03-23T18:20:32;98240;;;13.14;81.35
44127;BME280;29786;50.798;7.302;2023-03-23T18:25:28;98220;;;13.07;82.38
44127;BME280;29786;50.798;7.302;2023-03-23T18:30:25;98220;;;13.16;81.79
44127;BME280;29786;50.798;7.302;2023-03-23T18:36:35;98220;;;13.07;83.69
44127;BME280;29786;50.798;7.302;2023-03-23T18:41:32;98210;;;13.16;84.23
44127;BME280;29786;50.798;7.302;2023-03-23T18:46:28;98200;;;12.89;87.33
44127;BME280;29786;50.798;7.302;2023-03-23T18:51:25;98190;;;12.89;88.68
44127;BME280;29786;50.798;7.302;2023-03-23T18:57:37;98180;;;12.82;90.68
44127;BME280;29786;50.798;7.302;2023-03-23T19:02:32;98180;;;12.81;92.12
44127;BME280;29786;50.798;7.302;2023-03-23T19:07:29;98180;;;12.85;92.96
44127;BME280;29786;50.798;7.302;2023-03-23T19:12:25;98180;;;12.9;93.48
44127;BME280;29786;50.798;7.302;2023-03-23T19:18:36;98170;;;12.9;94.64
44127;BME280;29786;50.798;7.302;2023-03-23T19:23:32;98160;;;12.91;94.83
44127;BME280;29786;50.798;7.302;2023-03-23T19:28:29;98150;;;12.78;97.56
44127;BME280;29786;50.798;7.302;2023-03-23T19:33:26;98150;;;12.74;98.62
44127;BME280;29786;50.798;7.302;2023-03-23T19:39:36;98140;;;12.77;98.88
44127;BME280;29786;50.798;7.302;2023-03-23T19:44:33;98140;;;12.73;99.04
44127;BME280;29786;50.798;7.302;2023-03-23T19:49:29;98140;;;12.75;98.79
44127;BME280;29786;50.798;7.302;2023-03-23T20:00:36;98150;;;12.75;99.36
44127;BME280;29786;50.798;7.302;2023-03-23T20:05:33;98140;;;12.65;100
44127;BME280;29786;50.798;7.302;2023-03-23T20:10:30;98140;;;12.69;100
44127;BME280;29786;50.798;7.302;2023-03-23T20:15:27;98140;;;12.72;100
44127;BME280;29786;50.798;7.302;2023-03-23T20:21:37;98140;;;12.71;100
44127;BME280;29786;50.798;7.302;2023-03-23T20:26:35;98130;;;12.66;100
44127;BME280;29786;50.798;7.302;2023-03-23T20:31:32;98120;;;12.57;100
44127;BME280;29786;50.798;7.302;2023-03-23T20:36:28;98120;;;12.57;100
44127;BME280;29786;50.798;7.302;2023-03-23T20:42:37;98120;;;12.52;100
44127;BME280;29786;50.798;7.302;2023-03-23T20:47:34;98110;;;12.44;100
44127;BME280;29786;50.798;7.302;2023-03-23T20:52:30;98100;;;12.43;100
44127;BME280;29786;50.798;7.302;2023-03-23T20:57:27;98090;;;12.52;100
44127;BME280;29786;50.798;7.302;2023-03-23T21:03:39;98090;;;12.52;100
44127;BME280;29786;50.798;7.302;2023-03-23T21:08:34;98080;;;12.54;100
44127;BME280;29786;50.798;7.302;2023-03-23T21:13:31;98070;;;12.36;100
44127;BME280;29786;50.798;7.302;2023-03-23T21:18:27;98070;;;12.38;100
44127;BME280;29786;50.798;7.302;2023-03-23T21:23:23;98060;;;12.47;100
44127;BME280;29786;50.798;7.302;2023-03-23T21:29:34;98050;;;12.52;100
44127;BME280;29786;50.798;7.302;2023-03-23T21:34:31;98060;;;12.5;100
44127;BME280;29786;50.798;7.302;2023-03-23T21:39:27;98050;;;12.59;100
44127;BME280;29786;50.798;7.302;2023-03-23T21:45:38;98050;;;12.66;100
44127;BME280;29786;50.798;7.302;2023-03-23T21:50:35;98050;;;12.73;100
44127;BME280;29786;50.798;7.302;2023-03-23T21:55:31;98030;;;12.58;100
44127;BME280;29786;50.798;7.302;2023-03-23T22:00:27;98050;;;12.68;100
44127;BME280;29786;50.798;7.302;2023-03-23T22:06:38;98040;;;12.64;100
44127;BME280;29786;50.798;7.302;2023-03-23T22:11:35;98040;;;12.67;100
44127;BME280;29786;50.798;7.302;2023-03-23T22:16:31;98020;;;12.56;100
44127;BME280;29786;50.798;7.302;2023-03-23T22:21:28;98030;;;12.68;100
44127;BME280;29786;50.798;7.302;2023-03-23T22:27:39;98020;;;12.79;100
44127;BME280;29786;50.798;7.302;2023-03-23T22:32:35;98030;;;12.73;100
44127;BME280;29786;50.798;7.302;2023-03-23T22:37:32;98020;;;12.89;100
44127;BME280;29786;50.798;7.302;2023-03-23T22:42:28;98020;;;12.98;100
44127;BME280;29786;50.798;7.302;2023-03-23T22:47:24;98010;;;12.96;100
44127;BME280;29786;50.798;7.302;2023-03-23T22:53:35;98000;;;12.97;100
44127;BME280;29786;50.798;7.302;2023-03-23T22:58:32;97980;;;12.98;100
44127;BME280;29786;50.798;7.302;2023-03-23T23:03:29;97970;;;13.05;100
44127;BME280;29786;50.798;7.302;2023-03-23T23:07:11;97980;;;13.01;100
44127;BME280;29786;50.798;7.302;2023-03-23T23:08:25;97950;;;13.01;100
44127;BME280;29786;50.798;7.302;2023-03-23T23:14:35;97950;;;13.04;100
44127;BME280;29786;50.798;7.302;2023-03-23T23:19:32;97950;;;13.06;100
44127;BME280;29786;50.798;7.302;2023-03-23T23:24:29;97930;;;13.04;100
44127;BME280;29786;50.798;7.302;2023-03-23T23:29:25;97930;;;13.06;100
44127;BME280;29786;50.798;7.302;2023-03-23T23:35:36;97930;;;13.03;100
44127;BME280;29786;50.798;7.302;2023-03-23T23:40:32;97930;;;13.1;100
44127;BME280;29786;50.798;7.302;2023-03-23T23:45:29;97910;;;13.16;100
44127;BME280;29786;50.798;7.302;2023-03-23T23:50:25;97900;;;13.13;100
44127;BME280;29786;50.798;7.302;2023-03-23T23:56:36;97910;;;13.16;100
